sensor_id;sensor_type;location;lat;lon;timestamp;P1;durP1;ratioP1;P2;durP2;ratioP2
58338;SDS011;68636;52.704;6.536;2023-05-16T00:00:05;16.15;;;2.25;;
58338;SDS011;68636;52.704;6.536;2023-05-16T00:02:33;19.17;;;2.35;;
58338;SDS011;68636;52.704;6.536;2023-05-16T00:05:01;17.38;;;2.33;;
58338;SDS011;68636;52.704;6.536;2023-05-16T00:07:28;16.55;;;2.00;;
58338;SDS011;68636;52.704;6.536;2023-05-16T00:09:54;11.50;;;1.33;;
58338;SDS011;68636;52.704;6.536;2023-05-16T00:12:21;19.20;;;1.90;;
58338;SDS011;68636;52.704;6.536;2023-05-16T00:14:47;16.52;;;2.13;;
58338;SDS011;68636;52.704;6.536;2023-05-16T00:17:14;13.95;;;1.67;;
58338;SDS011;68636;52.704;6.536;2023-05-16T00:22:08;19.77;;;2.08;;
58338;SDS011;68636;52.704;6.536;2023-05-16T00:24:35;20.23;;;1.90;;
58338;SDS011;68636;52.704;6.536;2023-05-16T00:27:01;12.77;;;1.38;;
58338;SDS011;68636;52.704;6.536;2023-05-16T00:29:29;19.63;;;1.92;;
58338;SDS011;68636;52.704;6.536;2023-05-16T00:31:55;21.35;;;2.25;;
58338;SDS011;68636;52.704;6.536;2023-05-16T00:34:21;15.05;;;2.15;;
58338;SDS011;68636;52.704;6.536;2023-05-16T00:36:48;19.20;;;1.98;;
58338;SDS011;68636;52.704;6.536;2023-05-16T00:39:14;18.15;;;2.05;;
58338;SDS011;68636;52.704;6.536;2023-05-16T00:41:40;16.30;;;1.45;;
58338;SDS011;68636;52.704;6.536;2023-05-16T00:44:06;19.10;;;1.63;;
58338;SDS011;68636;52.704;6.536;2023-05-16T00:46:32;21.77;;;2.10;;
58338;SDS011;68636;52.704;6.536;2023-05-16T00:51:25;13.33;;;1.80;;
58338;SDS011;68636;52.704;6.536;2023-05-16T00:53:51;18.08;;;1.65;;
58338;SDS011;68636;52.704;6.536;2023-05-16T00:56:18;17.02;;;1.60;;
58338;SDS011;68636;52.704;6.536;2023-05-16T01:01:11;16.63;;;2.05;;
58338;SDS011;68636;52.704;6.536;2023-05-16T01:03:38;15.30;;;1.25;;
58338;SDS011;68636;52.704;6.536;2023-05-16T01:06:04;14.18;;;2.15;;
58338;SDS011;68636;52.704;6.536;2023-05-16T01:08:30;12.43;;;1.40;;
58338;SDS011;68636;52.704;6.536;2023-05-16T01:11:11;19.65;;;2.17;;
58338;SDS011;68636;52.704;6.536;2023-05-16T01:16:57;15.82;;;1.58;;
58338;SDS011;68636;52.704;6.536;2023-05-16T01:27:46;24.98;;;1.90;;
58338;SDS011;68636;52.704;6.536;2023-05-16T01:30:13;16.25;;;2.50;;
58338;SDS011;68636;52.704;6.536;2023-05-16T01:32:41;26.17;;;2.47;;
58338;SDS011;68636;52.704;6.536;2023-05-16T01:35:07;19.65;;;2.70;;
58338;SDS011;68636;52.704;6.536;2023-05-16T01:37:38;17.15;;;1.58;;
58338;SDS011;68636;52.704;6.536;2023-05-16T01:42:41;23.48;;;3.22;;
58338;SDS011;68636;52.704;6.536;2023-05-16T01:47:46;18.83;;;1.75;;
58338;SDS011;68636;52.704;6.536;2023-05-16T01:50:29;12.82;;;1.83;;
58338;SDS011;68636;52.704;6.536;2023-05-16T01:53:07;19.77;;;2.08;;
58338;SDS011;68636;52.704;6.536;2023-05-16T01:55:42;17.85;;;1.90;;
58338;SDS011;68636;52.704;6.536;2023-05-16T01:58:14;15.73;;;1.48;;
58338;SDS011;68636;52.704;6.536;2023-05-16T02:00:42;17.77;;;1.75;;
58338;SDS011;68636;52.704;6.536;2023-05-16T02:03:08;20.52;;;2.03;;
58338;SDS011;68636;52.704;6.536;2023-05-16T02:05:34;19.15;;;1.58;;
58338;SDS011;68636;52.704;6.536;2023-05-16T02:08:00;20.08;;;1.77;;
58338;SDS011;68636;52.704;6.536;2023-05-16T02:10:26;14.90;;;1.20;;
58338;SDS011;68636;52.704;6.536;2023-05-16T02:12:52;12.43;;;1.75;;
58338;SDS011;68636;52.704;6.536;2023-05-16T02:15:18;13.18;;;1.40;;
58338;SDS011;68636;52.704;6.536;2023-05-16T02:17:44;12.98;;;1.65;;
58338;SDS011;68636;52.704;6.536;2023-05-16T02:20:11;18.88;;;1.55;;
58338;SDS011;68636;52.704;6.536;2023-05-16T02:22:37;18.97;;;1.60;;
58338;SDS011;68636;52.704;6.536;2023-05-16T02:25:03;18.73;;;1.20;;
58338;SDS011;68636;52.704;6.536;2023-05-16T02:27:30;12.95;;;1.10;;
58338;SDS011;68636;52.704;6.536;2023-05-16T02:29:56;20.95;;;1.85;;
58338;SDS011;68636;52.704;6.536;2023-05-16T02:32:22;10.32;;;1.45;;
58338;SDS011;68636;52.704;6.536;2023-05-16T02:34:48;11.52;;;1.27;;
58338;SDS011;68636;52.704;6.536;2023-05-16T02:37:13;15.55;;;1.73;;
58338;SDS011;68636;52.704;6.536;2023-05-16T02:39:40;15.17;;;1.10;;
58338;SDS011;68636;52.704;6.536;2023-05-16T02:42:06;17.67;;;1.67;;
58338;SDS011;68636;52.704;6.536;2023-05-16T02:44:32;11.23;;;1.33;;
58338;SDS011;68636;52.704;6.536;2023-05-16T02:46:58;17.85;;;1.48;;
58338;SDS011;68636;52.704;6.536;2023-05-16T02:49:24;12.80;;;1.42;;
58338;SDS011;68636;52.704;6.536;2023-05-16T02:51:49;10.77;;;0.93;;
58338;SDS011;68636;52.704;6.536;2023-05-16T02:54:15;15.27;;;1.40;;
58338;SDS011;68636;52.704;6.536;2023-05-16T02:56:42;16.25;;;1.80;;
58338;SDS011;68636;52.704;6.536;2023-05-16T02:59:09;5.75;;;0.85;;
58338;SDS011;68636;52.704;6.536;2023-05-16T03:01:35;11.10;;;1.10;;
58338;SDS011;68636;52.704;6.536;2023-05-16T03:04:01;19.45;;;1.92;;
58338;SDS011;68636;52.704;6.536;2023-05-16T03:06:27;14.55;;;2.20;;
58338;SDS011;68636;52.704;6.536;2023-05-16T03:08:54;12.80;;;1.63;;
58338;SDS011;68636;52.704;6.536;2023-05-16T03:11:20;11.68;;;1.52;;
58338;SDS011;68636;52.704;6.536;2023-05-16T03:13:47;13.85;;;1.75;;
58338;SDS011;68636;52.704;6.536;2023-05-16T03:16:13;8.80;;;1.10;;
58338;SDS011;68636;52.704;6.536;2023-05-16T03:18:39;15.13;;;1.17;;
58338;SDS011;68636;52.704;6.536;2023-05-16T03:21:05;13.50;;;1.33;;
58338;SDS011;68636;52.704;6.536;2023-05-16T03:23:31;16.33;;;1.20;;
58338;SDS011;68636;52.704;6.536;2023-05-16T03:25:57;18.27;;;1.23;;
58338;SDS011;68636;52.704;6.536;2023-05-16T03:28:23;17.20;;;1.60;;
58338;SDS011;68636;52.704;6.536;2023-05-16T03:30:49;13.75;;;1.95;;
58338;SDS011;68636;52.704;6.536;2023-05-16T03:33:15;14.70;;;1.65;;
58338;SDS011;68636;52.704;6.536;2023-05-16T03:35:41;21.15;;;1.60;;
58338;SDS011;68636;52.704;6.536;2023-05-16T03:38:07;14.40;;;1.75;;
58338;SDS011;68636;52.704;6.536;2023-05-16T03:40:33;13.85;;;1.40;;
58338;SDS011;68636;52.704;6.536;2023-05-16T03:42:59;22.90;;;1.40;;
58338;SDS011;68636;52.704;6.536;2023-05-16T03:45:25;16.23;;;2.42;;
58338;SDS011;68636;52.704;6.536;2023-05-16T03:47:51;21.17;;;2.00;;
58338;SDS011;68636;52.704;6.536;2023-05-16T03:50:17;11.73;;;1.55;;
58338;SDS011;68636;52.704;6.536;2023-05-16T03:52:43;13.15;;;1.70;;
58338;SDS011;68636;52.704;6.536;2023-05-16T03:55:08;13.10;;;1.92;;
58338;SDS011;68636;52.704;6.536;2023-05-16T03:57:35;17.23;;;1.85;;
58338;SDS011;68636;52.704;6.536;2023-05-16T04:00:02;15.38;;;1.55;;
58338;SDS011;68636;52.704;6.536;2023-05-16T04:02:32;15.15;;;1.77;;
58338;SDS011;68636;52.704;6.536;2023-05-16T04:04:57;14.77;;;1.33;;
58338;SDS011;68636;52.704;6.536;2023-05-16T04:07:23;20.42;;;1.60;;
58338;SDS011;68636;52.704;6.536;2023-05-16T04:09:50;10.20;;;1.90;;
58338;SDS011;68636;52.704;6.536;2023-05-16T04:12:16;14.77;;;1.65;;
58338;SDS011;68636;52.704;6.536;2023-05-16T04:14:42;16.42;;;1.55;;
58338;SDS011;68636;52.704;6.536;2023-05-16T04:17:08;16.75;;;1.98;;
58338;SDS011;68636;52.704;6.536;2023-05-16T04:19:35;18.33;;;2.20;;
58338;SDS011;68636;52.704;6.536;2023-05-16T04:22:00;17.35;;;1.73;;
58338;SDS011;68636;52.704;6.536;2023-05-16T04:24:26;18.00;;;1.63;;
58338;SDS011;68636;52.704;6.536;2023-05-16T04:26:53;21.70;;;2.47;;
58338;SDS011;68636;52.704;6.536;2023-05-16T04:29:19;14.65;;;1.27;;
58338;SDS011;68636;52.704;6.536;2023-05-16T04:31:46;13.23;;;1.50;;
58338;SDS011;68636;52.704;6.536;2023-05-16T04:34:12;15.18;;;2.00;;
58338;SDS011;68636;52.704;6.536;2023-05-16T04:36:39;14.82;;;1.80;;
58338;SDS011;68636;52.704;6.536;2023-05-16T04:39:05;11.87;;;1.73;;
58338;SDS011;68636;52.704;6.536;2023-05-16T04:41:32;14.30;;;2.00;;
58338;SDS011;68636;52.704;6.536;2023-05-16T04:44:02;12.82;;;1.27;;
58338;SDS011;68636;52.704;6.536;2023-05-16T04:46:30;13.98;;;1.50;;
58338;SDS011;68636;52.704;6.536;2023-05-16T04:48:56;10.57;;;1.27;;
58338;SDS011;68636;52.704;6.536;2023-05-16T04:51:22;17.15;;;2.15;;
58338;SDS011;68636;52.704;6.536;2023-05-16T04:53:47;19.95;;;2.25;;
58338;SDS011;68636;52.704;6.536;2023-05-16T04:56:13;13.57;;;1.30;;
58338;SDS011;68636;52.704;6.536;2023-05-16T04:58:39;10.35;;;1.33;;
58338;SDS011;68636;52.704;6.536;2023-05-16T05:01:05;12.23;;;1.60;;
58338;SDS011;68636;52.704;6.536;2023-05-16T05:03:31;15.52;;;1.85;;
58338;SDS011;68636;52.704;6.536;2023-05-16T05:05:56;14.50;;;1.50;;
58338;SDS011;68636;52.704;6.536;2023-05-16T05:08:22;15.82;;;1.77;;
58338;SDS011;68636;52.704;6.536;2023-05-16T05:10:48;15.02;;;1.50;;
58338;SDS011;68636;52.704;6.536;2023-05-16T05:13:14;12.70;;;1.60;;
58338;SDS011;68636;52.704;6.536;2023-05-16T05:15:39;14.63;;;1.33;;
58338;SDS011;68636;52.704;6.536;2023-05-16T05:18:05;11.98;;;1.80;;
58338;SDS011;68636;52.704;6.536;2023-05-16T05:20:31;17.83;;;1.17;;
58338;SDS011;68636;52.704;6.536;2023-05-16T05:22:56;13.20;;;2.70;;
58338;SDS011;68636;52.704;6.536;2023-05-16T05:25:22;10.15;;;1.17;;
58338;SDS011;68636;52.704;6.536;2023-05-16T05:27:48;11.98;;;2.05;;
58338;SDS011;68636;52.704;6.536;2023-05-16T05:30:14;9.98;;;1.02;;
58338;SDS011;68636;52.704;6.536;2023-05-16T05:32:40;12.25;;;2.00;;
58338;SDS011;68636;52.704;6.536;2023-05-16T05:35:06;10.20;;;1.00;;
58338;SDS011;68636;52.704;6.536;2023-05-16T05:37:31;8.23;;;1.20;;
58338;SDS011;68636;52.704;6.536;2023-05-16T05:39:57;11.57;;;1.02;;
58338;SDS011;68636;52.704;6.536;2023-05-16T05:42:23;14.30;;;1.10;;
58338;SDS011;68636;52.704;6.536;2023-05-16T05:44:49;10.82;;;1.00;;
58338;SDS011;68636;52.704;6.536;2023-05-16T05:47:15;11.05;;;1.30;;
58338;SDS011;68636;52.704;6.536;2023-05-16T05:49:41;9.75;;;1.00;;
58338;SDS011;68636;52.704;6.536;2023-05-16T05:52:07;9.70;;;0.98;;
58338;SDS011;68636;52.704;6.536;2023-05-16T05:54:33;15.05;;;1.13;;
58338;SDS011;68636;52.704;6.536;2023-05-16T05:56:59;13.63;;;1.65;;
58338;SDS011;68636;52.704;6.536;2023-05-16T05:59:25;16.17;;;1.45;;
58338;SDS011;68636;52.704;6.536;2023-05-16T06:01:51;11.40;;;1.10;;
58338;SDS011;68636;52.704;6.536;2023-05-16T06:04:17;13.60;;;1.50;;
58338;SDS011;68636;52.704;6.536;2023-05-16T06:06:43;9.23;;;0.77;;
58338;SDS011;68636;52.704;6.536;2023-05-16T06:09:09;8.93;;;1.02;;
58338;SDS011;68636;52.704;6.536;2023-05-16T06:11:36;14.80;;;1.05;;
58338;SDS011;68636;52.704;6.536;2023-05-16T06:14:02;15.27;;;1.27;;
58338;SDS011;68636;52.704;6.536;2023-05-16T06:16:28;16.80;;;1.63;;
58338;SDS011;68636;52.704;6.536;2023-05-16T06:18:54;12.20;;;1.20;;
58338;SDS011;68636;52.704;6.536;2023-05-16T06:21:20;10.95;;;0.93;;
58338;SDS011;68636;52.704;6.536;2023-05-16T06:23:45;12.70;;;1.55;;
58338;SDS011;68636;52.704;6.536;2023-05-16T06:26:11;12.50;;;1.15;;
58338;SDS011;68636;52.704;6.536;2023-05-16T06:28:37;14.82;;;1.17;;
58338;SDS011;68636;52.704;6.536;2023-05-16T06:31:03;16.13;;;0.93;;
58338;SDS011;68636;52.704;6.536;2023-05-16T06:33:28;13.90;;;1.50;;
58338;SDS011;68636;52.704;6.536;2023-05-16T06:35:54;7.53;;;0.80;;
58338;SDS011;68636;52.704;6.536;2023-05-16T06:38:20;10.82;;;0.90;;
58338;SDS011;68636;52.704;6.536;2023-05-16T06:40:45;10.38;;;1.10;;
58338;SDS011;68636;52.704;6.536;2023-05-16T06:43:11;11.77;;;0.88;;
58338;SDS011;68636;52.704;6.536;2023-05-16T06:45:37;12.15;;;1.15;;
58338;SDS011;68636;52.704;6.536;2023-05-16T06:48:03;19.83;;;2.13;;
58338;SDS011;68636;52.704;6.536;2023-05-16T06:50:31;10.65;;;1.10;;
58338;SDS011;68636;52.704;6.536;2023-05-16T06:52:57;10.95;;;0.80;;
58338;SDS011;68636;52.704;6.536;2023-05-16T06:55:23;9.82;;;1.17;;
58338;SDS011;68636;52.704;6.536;2023-05-16T06:57:48;9.70;;;0.85;;
58338;SDS011;68636;52.704;6.536;2023-05-16T07:00:14;11.70;;;1.05;;
58338;SDS011;68636;52.704;6.536;2023-05-16T07:02:40;8.93;;;0.85;;
58338;SDS011;68636;52.704;6.536;2023-05-16T07:05:06;9.57;;;0.68;;
58338;SDS011;68636;52.704;6.536;2023-05-16T07:07:32;8.57;;;0.80;;
58338;SDS011;68636;52.704;6.536;2023-05-16T07:09:59;6.60;;;0.73;;
58338;SDS011;68636;52.704;6.536;2023-05-16T07:12:25;9.60;;;0.70;;
58338;SDS011;68636;52.704;6.536;2023-05-16T07:14:51;8.88;;;1.45;;
58338;SDS011;68636;52.704;6.536;2023-05-16T07:17:16;7.00;;;0.55;;
58338;SDS011;68636;52.704;6.536;2023-05-16T07:19:42;9.55;;;0.60;;
58338;SDS011;68636;52.704;6.536;2023-05-16T07:22:08;10.98;;;0.80;;
58338;SDS011;68636;52.704;6.536;2023-05-16T07:24:35;8.18;;;0.70;;
58338;SDS011;68636;52.704;6.536;2023-05-16T07:27:00;9.98;;;0.60;;
58338;SDS011;68636;52.704;6.536;2023-05-16T07:29:26;7.13;;;0.60;;
58338;SDS011;68636;52.704;6.536;2023-05-16T07:31:52;10.25;;;0.85;;
58338;SDS011;68636;52.704;6.536;2023-05-16T07:34:18;10.70;;;0.90;;
58338;SDS011;68636;52.704;6.536;2023-05-16T07:36:44;7.18;;;0.65;;
58338;SDS011;68636;52.704;6.536;2023-05-16T07:39:10;5.43;;;0.57;;
58338;SDS011;68636;52.704;6.536;2023-05-16T07:41:35;6.63;;;0.60;;
58338;SDS011;68636;52.704;6.536;2023-05-16T07:44:01;12.18;;;0.95;;
58338;SDS011;68636;52.704;6.536;2023-05-16T07:46:27;12.55;;;0.73;;
58338;SDS011;68636;52.704;6.536;2023-05-16T07:48:52;9.45;;;0.90;;
58338;SDS011;68636;52.704;6.536;2023-05-16T07:51:18;11.80;;;0.80;;
58338;SDS011;68636;52.704;6.536;2023-05-16T07:53:44;12.07;;;0.73;;
58338;SDS011;68636;52.704;6.536;2023-05-16T07:56:09;9.43;;;0.55;;
58338;SDS011;68636;52.704;6.536;2023-05-16T07:58:36;6.07;;;0.30;;
58338;SDS011;68636;52.704;6.536;2023-05-16T08:01:02;5.82;;;0.30;;
58338;SDS011;68636;52.704;6.536;2023-05-16T08:03:28;5.80;;;0.77;;
58338;SDS011;68636;52.704;6.536;2023-05-16T08:05:54;4.07;;;0.50;;
58338;SDS011;68636;52.704;6.536;2023-05-16T08:08:20;7.75;;;0.45;;
58338;SDS011;68636;52.704;6.536;2023-05-16T08:10:46;4.25;;;0.30;;
58338;SDS011;68636;52.704;6.536;2023-05-16T08:13:11;7.65;;;0.60;;
58338;SDS011;68636;52.704;6.536;2023-05-16T08:15:37;7.25;;;0.43;;
58338;SDS011;68636;52.704;6.536;2023-05-16T08:18:03;7.70;;;0.60;;
58338;SDS011;68636;52.704;6.536;2023-05-16T08:20:31;12.38;;;1.55;;
58338;SDS011;68636;52.704;6.536;2023-05-16T08:22:56;7.93;;;0.50;;
58338;SDS011;68636;52.704;6.536;2023-05-16T08:25:22;9.70;;;0.60;;
58338;SDS011;68636;52.704;6.536;2023-05-16T08:27:48;13.65;;;0.80;;
58338;SDS011;68636;52.704;6.536;2023-05-16T08:30:15;12.02;;;0.70;;
58338;SDS011;68636;52.704;6.536;2023-05-16T08:32:41;11.35;;;0.73;;
58338;SDS011;68636;52.704;6.536;2023-05-16T08:35:07;10.70;;;0.60;;
58338;SDS011;68636;52.704;6.536;2023-05-16T08:37:32;5.40;;;0.40;;
58338;SDS011;68636;52.704;6.536;2023-05-16T08:39:59;12.90;;;0.77;;
58338;SDS011;68636;52.704;6.536;2023-05-16T08:42:24;9.68;;;0.52;;
58338;SDS011;68636;52.704;6.536;2023-05-16T08:44:51;6.95;;;0.68;;
58338;SDS011;68636;52.704;6.536;2023-05-16T08:47:17;2.45;;;0.30;;
58338;SDS011;68636;52.704;6.536;2023-05-16T08:49:48;7.68;;;0.52;;
58338;SDS011;68636;52.704;6.536;2023-05-16T08:52:18;10.23;;;0.60;;
58338;SDS011;68636;52.704;6.536;2023-05-16T08:54:45;4.80;;;0.47;;
58338;SDS011;68636;52.704;6.536;2023-05-16T08:57:13;8.32;;;0.43;;
58338;SDS011;68636;52.704;6.536;2023-05-16T08:59:40;7.32;;;0.60;;
58338;SDS011;68636;52.704;6.536;2023-05-16T09:02:06;9.10;;;0.70;;
58338;SDS011;68636;52.704;6.536;2023-05-16T09:04:33;4.88;;;0.40;;
58338;SDS011;68636;52.704;6.536;2023-05-16T09:07:00;8.05;;;0.60;;
58338;SDS011;68636;52.704;6.536;2023-05-16T09:09:26;9.05;;;0.55;;
58338;SDS011;68636;52.704;6.536;2023-05-16T09:11:52;6.13;;;0.60;;
58338;SDS011;68636;52.704;6.536;2023-05-16T09:14:18;8.05;;;0.65;;
58338;SDS011;68636;52.704;6.536;2023-05-16T09:16:44;8.32;;;0.70;;
58338;SDS011;68636;52.704;6.536;2023-05-16T09:19:31;12.70;;;1.10;;
58338;SDS011;68636;52.704;6.536;2023-05-16T09:21:57;11.55;;;0.82;;
58338;SDS011;68636;52.704;6.536;2023-05-16T09:24:27;9.02;;;0.57;;
58338;SDS011;68636;52.704;6.536;2023-05-16T09:26:53;6.80;;;0.50;;
58338;SDS011;68636;52.704;6.536;2023-05-16T09:29:20;7.28;;;1.00;;
58338;SDS011;68636;52.704;6.536;2023-05-16T09:31:48;8.88;;;0.60;;
58338;SDS011;68636;52.704;6.536;2023-05-16T09:34:14;9.60;;;0.50;;
58338;SDS011;68636;52.704;6.536;2023-05-16T09:36:40;7.95;;;0.68;;
58338;SDS011;68636;52.704;6.536;2023-05-16T09:39:06;6.63;;;0.83;;
58338;SDS011;68636;52.704;6.536;2023-05-16T09:41:33;9.83;;;0.87;;
58338;SDS011;68636;52.704;6.536;2023-05-16T09:44:04;7.38;;;0.90;;
58338;SDS011;68636;52.704;6.536;2023-05-16T09:46:32;6.25;;;0.60;;
58338;SDS011;68636;52.704;6.536;2023-05-16T09:48:58;11.02;;;0.77;;
58338;SDS011;68636;52.704;6.536;2023-05-16T09:51:24;5.35;;;0.70;;
58338;SDS011;68636;52.704;6.536;2023-05-16T09:53:51;5.38;;;0.40;;
58338;SDS011;68636;52.704;6.536;2023-05-16T09:56:17;8.95;;;0.52;;
58338;SDS011;68636;52.704;6.536;2023-05-16T09:58:43;8.30;;;0.70;;
58338;SDS011;68636;52.704;6.536;2023-05-16T10:01:11;7.85;;;0.45;;
58338;SDS011;68636;52.704;6.536;2023-05-16T10:03:38;4.57;;;0.50;;
58338;SDS011;68636;52.704;6.536;2023-05-16T10:06:05;11.20;;;0.68;;
58338;SDS011;68636;52.704;6.536;2023-05-16T10:08:32;4.60;;;0.35;;
58338;SDS011;68636;52.704;6.536;2023-05-16T10:11:02;10.10;;;0.70;;
58338;SDS011;68636;52.704;6.536;2023-05-16T10:13:30;7.90;;;0.55;;
58338;SDS011;68636;52.704;6.536;2023-05-16T10:16:01;6.47;;;0.50;;
58338;SDS011;68636;52.704;6.536;2023-05-16T10:18:35;8.98;;;0.50;;
58338;SDS011;68636;52.704;6.536;2023-05-16T10:21:04;12.48;;;0.60;;
58338;SDS011;68636;52.704;6.536;2023-05-16T10:23:34;6.70;;;0.60;;
58338;SDS011;68636;52.704;6.536;2023-05-16T10:26:02;6.70;;;0.50;;
58338;SDS011;68636;52.704;6.536;2023-05-16T10:28:30;5.82;;;0.40;;
58338;SDS011;68636;52.704;6.536;2023-05-16T10:30:56;4.38;;;0.32;;
58338;SDS011;68636;52.704;6.536;2023-05-16T10:33:23;5.80;;;0.40;;
58338;SDS011;68636;52.704;6.536;2023-05-16T10:35:49;4.93;;;0.50;;
58338;SDS011;68636;52.704;6.536;2023-05-16T10:38:15;5.15;;;0.30;;
58338;SDS011;68636;52.704;6.536;2023-05-16T10:40:42;6.80;;;0.60;;
58338;SDS011;68636;52.704;6.536;2023-05-16T10:43:09;2.50;;;0.30;;
58338;SDS011;68636;52.704;6.536;2023-05-16T10:45:39;5.28;;;0.30;;
58338;SDS011;68636;52.704;6.536;2023-05-16T10:48:06;7.25;;;0.30;;
58338;SDS011;68636;52.704;6.536;2023-05-16T10:50:44;6.63;;;0.63;;
58338;SDS011;68636;52.704;6.536;2023-05-16T10:53:20;8.10;;;0.60;;
58338;SDS011;68636;52.704;6.536;2023-05-16T13:48:16;10.15;;;1.98;;
58338;SDS011;68636;52.704;6.536;2023-05-16T13:50:42;5.88;;;1.33;;
58338;SDS011;68636;52.704;6.536;2023-05-16T13:53:07;9.65;;;1.80;;
58338;SDS011;68636;52.704;6.536;2023-05-16T13:55:33;10.90;;;2.05;;
58338;SDS011;68636;52.704;6.536;2023-05-16T13:57:59;10.35;;;2.08;;
58338;SDS011;68636;52.704;6.536;2023-05-16T14:00:25;7.35;;;1.60;;
58338;SDS011;68636;52.704;6.536;2023-05-16T14:02:50;8.18;;;2.03;;
58338;SDS011;68636;52.704;6.536;2023-05-16T14:05:17;7.40;;;1.67;;
58338;SDS011;68636;52.704;6.536;2023-05-16T14:07:42;7.65;;;1.75;;
58338;SDS011;68636;52.704;6.536;2023-05-16T14:10:08;6.38;;;1.58;;
58338;SDS011;68636;52.704;6.536;2023-05-16T14:12:34;8.82;;;1.65;;
58338;SDS011;68636;52.704;6.536;2023-05-16T14:15:01;7.43;;;2.08;;
58338;SDS011;68636;52.704;6.536;2023-05-16T14:17:27;5.38;;;1.70;;
58338;SDS011;68636;52.704;6.536;2023-05-16T14:19:52;9.52;;;1.90;;
58338;SDS011;68636;52.704;6.536;2023-05-16T14:22:18;7.57;;;2.10;;
58338;SDS011;68636;52.704;6.536;2023-05-16T14:24:44;6.77;;;1.80;;
58338;SDS011;68636;52.704;6.536;2023-05-16T14:27:10;10.02;;;2.15;;
58338;SDS011;68636;52.704;6.536;2023-05-16T14:29:36;8.77;;;1.67;;
58338;SDS011;68636;52.704;6.536;2023-05-16T14:32:02;7.32;;;1.85;;
58338;SDS011;68636;52.704;6.536;2023-05-16T14:34:28;8.63;;;1.80;;
58338;SDS011;68636;52.704;6.536;2023-05-16T14:36:54;10.40;;;1.65;;
58338;SDS011;68636;52.704;6.536;2023-05-16T14:39:20;10.77;;;1.75;;
58338;SDS011;68636;52.704;6.536;2023-05-16T14:41:45;9.40;;;1.80;;
58338;SDS011;68636;52.704;6.536;2023-05-16T14:44:11;9.48;;;1.90;;
58338;SDS011;68636;52.704;6.536;2023-05-16T14:46:37;9.80;;;1.90;;
58338;SDS011;68636;52.704;6.536;2023-05-16T14:49:03;10.85;;;2.30;;
58338;SDS011;68636;52.704;6.536;2023-05-16T14:51:29;10.73;;;3.05;;
58338;SDS011;68636;52.704;6.536;2023-05-16T14:53:56;11.93;;;2.65;;
58338;SDS011;68636;52.704;6.536;2023-05-16T14:56:22;9.18;;;2.92;;
58338;SDS011;68636;52.704;6.536;2023-05-16T14:58:47;10.80;;;2.40;;
58338;SDS011;68636;52.704;6.536;2023-05-16T15:01:13;11.88;;;2.70;;
58338;SDS011;68636;52.704;6.536;2023-05-16T15:03:40;11.10;;;3.15;;
58338;SDS011;68636;52.704;6.536;2023-05-16T15:06:06;13.50;;;2.85;;
58338;SDS011;68636;52.704;6.536;2023-05-16T15:08:32;11.35;;;3.03;;
58338;SDS011;68636;52.704;6.536;2023-05-16T15:13:25;6.50;;;2.37;;
58338;SDS011;68636;52.704;6.536;2023-05-16T15:15:51;9.60;;;2.30;;
58338;SDS011;68636;52.704;6.536;2023-05-16T15:18:16;10.55;;;2.70;;
58338;SDS011;68636;52.704;6.536;2023-05-16T15:20:42;8.82;;;2.30;;
58338;SDS011;68636;52.704;6.536;2023-05-16T15:23:08;8.98;;;2.10;;
58338;SDS011;68636;52.704;6.536;2023-05-16T15:25:33;8.93;;;1.70;;
58338;SDS011;68636;52.704;6.536;2023-05-16T15:27:59;8.32;;;1.80;;
58338;SDS011;68636;52.704;6.536;2023-05-16T15:30:25;9.02;;;2.25;;
58338;SDS011;68636;52.704;6.536;2023-05-16T15:32:51;8.30;;;2.00;;
58338;SDS011;68636;52.704;6.536;2023-05-16T15:35:17;7.97;;;1.60;;
58338;SDS011;68636;52.704;6.536;2023-05-16T15:37:43;9.32;;;1.60;;
58338;SDS011;68636;52.704;6.536;2023-05-16T15:40:09;7.63;;;1.60;;
58338;SDS011;68636;52.704;6.536;2023-05-16T15:42:35;8.80;;;1.58;;
58338;SDS011;68636;52.704;6.536;2023-05-16T15:45:01;8.23;;;2.33;;
58338;SDS011;68636;52.704;6.536;2023-05-16T15:47:27;9.52;;;1.80;;
58338;SDS011;68636;52.704;6.536;2023-05-16T15:49:53;7.10;;;1.75;;
58338;SDS011;68636;52.704;6.536;2023-05-16T15:52:18;9.60;;;1.65;;
58338;SDS011;68636;52.704;6.536;2023-05-16T15:54:44;7.00;;;2.03;;
58338;SDS011;68636;52.704;6.536;2023-05-16T15:57:10;5.85;;;1.48;;
58338;SDS011;68636;52.704;6.536;2023-05-16T15:59:36;6.20;;;1.67;;
58338;SDS011;68636;52.704;6.536;2023-05-16T16:02:01;7.47;;;1.60;;
58338;SDS011;68636;52.704;6.536;2023-05-16T16:04:29;7.38;;;1.60;;
58338;SDS011;68636;52.704;6.536;2023-05-16T16:06:55;8.20;;;1.70;;
58338;SDS011;68636;52.704;6.536;2023-05-16T16:09:21;9.35;;;1.88;;
58338;SDS011;68636;52.704;6.536;2023-05-16T16:11:47;7.90;;;2.20;;
58338;SDS011;68636;52.704;6.536;2023-05-16T16:14:13;9.33;;;2.13;;
58338;SDS011;68636;52.704;6.536;2023-05-16T16:16:40;5.73;;;1.30;;
58338;SDS011;68636;52.704;6.536;2023-05-16T16:19:06;6.07;;;1.65;;
58338;SDS011;68636;52.704;6.536;2023-05-16T16:21:32;8.10;;;1.60;;
58338;SDS011;68636;52.704;6.536;2023-05-16T16:23:58;6.53;;;1.33;;
58338;SDS011;68636;52.704;6.536;2023-05-16T16:26:24;5.10;;;1.45;;
58338;SDS011;68636;52.704;6.536;2023-05-16T16:28:50;8.75;;;1.23;;
58338;SDS011;68636;52.704;6.536;2023-05-16T16:31:16;7.57;;;1.60;;
58338;SDS011;68636;52.704;6.536;2023-05-16T16:33:41;5.57;;;1.17;;
58338;SDS011;68636;52.704;6.536;2023-05-16T16:36:07;6.80;;;1.10;;
58338;SDS011;68636;52.704;6.536;2023-05-16T16:38:33;7.40;;;1.40;;
58338;SDS011;68636;52.704;6.536;2023-05-16T16:40:59;6.72;;;1.35;;
58338;SDS011;68636;52.704;6.536;2023-05-16T16:43:25;6.22;;;1.10;;
58338;SDS011;68636;52.704;6.536;2023-05-16T16:45:51;4.07;;;0.90;;
58338;SDS011;68636;52.704;6.536;2023-05-16T16:48:17;3.85;;;1.38;;
58338;SDS011;68636;52.704;6.536;2023-05-16T16:50:42;7.47;;;1.10;;
58338;SDS011;68636;52.704;6.536;2023-05-16T16:53:08;6.85;;;1.30;;
58338;SDS011;68636;52.704;6.536;2023-05-16T16:55:35;4.70;;;0.77;;
58338;SDS011;68636;52.704;6.536;2023-05-16T17:00:28;5.13;;;1.27;;
58338;SDS011;68636;52.704;6.536;2023-05-16T17:02:54;3.05;;;0.75;;
58338;SDS011;68636;52.704;6.536;2023-05-16T17:05:20;5.10;;;0.93;;
58338;SDS011;68636;52.704;6.536;2023-05-16T17:07:46;4.43;;;1.00;;
58338;SDS011;68636;52.704;6.536;2023-05-16T17:10:11;5.80;;;0.80;;
58338;SDS011;68636;52.704;6.536;2023-05-16T17:12:37;5.85;;;1.08;;
58338;SDS011;68636;52.704;6.536;2023-05-16T17:15:10;4.38;;;0.93;;
58338;SDS011;68636;52.704;6.536;2023-05-16T17:17:36;8.07;;;0.88;;
58338;SDS011;68636;52.704;6.536;2023-05-16T17:20:02;6.78;;;1.00;;
58338;SDS011;68636;52.704;6.536;2023-05-16T17:22:31;5.40;;;0.93;;
58338;SDS011;68636;52.704;6.536;2023-05-16T17:24:57;7.45;;;1.02;;
58338;SDS011;68636;52.704;6.536;2023-05-16T17:27:23;8.93;;;1.00;;
58338;SDS011;68636;52.704;6.536;2023-05-16T17:29:49;7.20;;;0.73;;
58338;SDS011;68636;52.704;6.536;2023-05-16T17:32:15;7.88;;;0.80;;
58338;SDS011;68636;52.704;6.536;2023-05-16T17:34:43;4.82;;;1.00;;
58338;SDS011;68636;52.704;6.536;2023-05-16T17:37:09;6.22;;;0.77;;
58338;SDS011;68636;52.704;6.536;2023-05-16T17:39:35;3.13;;;0.60;;
58338;SDS011;68636;52.704;6.536;2023-05-16T17:42:01;8.05;;;0.95;;
58338;SDS011;68636;52.704;6.536;2023-05-16T17:44:29;4.47;;;0.50;;
58338;SDS011;68636;52.704;6.536;2023-05-16T17:46:55;3.22;;;0.50;;
58338;SDS011;68636;52.704;6.536;2023-05-16T17:49:21;3.70;;;0.68;;
58338;SDS011;68636;52.704;6.536;2023-05-16T17:51:48;4.32;;;0.50;;
58338;SDS011;68636;52.704;6.536;2023-05-16T17:54:18;6.53;;;0.60;;
58338;SDS011;68636;52.704;6.536;2023-05-16T17:56:46;6.03;;;1.20;;